createdAt,value
2022-10-17T00:01:22.184Z,73
2022-10-17T00:03:01.936Z,73
2022-10-17T00:04:41.705Z,73
2022-10-17T00:06:21.555Z,73
2022-10-17T00:08:01.240Z,73
2022-10-17T00:09:41.022Z,73
2022-10-17T00:11:20.779Z,73
2022-10-17T00:13:00.553Z,73
2022-10-17T00:14:40.319Z,73
2022-10-17T00:16:20.117Z,73
2022-10-17T00:17:59.843Z,73
2022-10-17T00:19:39.621Z,73
2022-10-17T00:21:19.374Z,72
2022-10-17T00:22:59.158Z,73
2022-10-17T00:24:38.969Z,72
2022-10-17T00:26:18.695Z,72
2022-10-17T00:27:58.447Z,72
2022-10-17T00:29:38.237Z,72
2022-10-17T00:31:17.980Z,72
2022-10-17T00:32:57.752Z,72
2022-10-17T00:34:37.519Z,72
2022-10-17T00:36:17.315Z,72
2022-10-17T00:37:57.109Z,72
2022-10-17T00:39:36.842Z,72
2022-10-17T00:41:16.607Z,72
2022-10-17T00:42:56.371Z,72
2022-10-17T00:44:36.156Z,72
2022-10-17T00:46:15.912Z,72
2022-10-17T00:47:55.667Z,72
2022-10-17T00:49:35.434Z,72
2022-10-17T00:51:15.201Z,72
2022-10-17T00:52:55.015Z,72
2022-10-17T00:54:34.726Z,72
2022-10-17T00:57:54.260Z,72
2022-10-17T00:59:34.044Z,72
2022-10-17T01:01:13.794Z,72
2022-10-17T01:02:53.594Z,72
2022-10-17T01:04:33.432Z,72
2022-10-17T01:06:13.117Z,71
2022-10-17T01:07:52.911Z,71
2022-10-17T01:09:32.662Z,71
2022-10-17T01:11:12.405Z,71
2022-10-17T01:12:52.276Z,72
2022-10-17T01:14:31.970Z,71
2022-10-17T01:16:11.699Z,71
2022-10-17T01:17:51.476Z,71
2022-10-17T01:19:31.237Z,71
2022-10-17T01:21:11.002Z,71
2022-10-17T01:22:50.790Z,71
2022-10-17T01:24:30.546Z,71
2022-10-17T01:26:10.308Z,71
2022-10-17T01:27:50.070Z,71
2022-10-17T01:29:29.855Z,71
2022-10-17T01:31:09.612Z,71
2022-10-17T01:32:49.388Z,71
2022-10-17T01:34:29.170Z,71
2022-10-17T01:36:08.945Z,71
2022-10-17T01:37:48.780Z,71
2022-10-17T01:39:28.457Z,71
2022-10-17T01:41:08.257Z,71
2022-10-17T01:42:48.006Z,71
2022-10-17T01:44:27.749Z,71
2022-10-17T01:46:07.612Z,71
2022-10-17T01:47:47.353Z,71
2022-10-17T01:49:27.050Z,71
2022-10-17T01:51:06.818Z,71
2022-10-17T01:52:46.591Z,71
2022-10-17T01:54:26.376Z,71
2022-10-17T01:56:06.156Z,70
2022-10-17T01:57:45.898Z,70
2022-10-17T01:59:25.657Z,70
2022-10-17T02:01:05.468Z,70
2022-10-17T02:02:45.276Z,70
2022-10-17T02:04:24.969Z,70
2022-10-17T02:06:04.736Z,70
2022-10-17T02:07:44.569Z,70
2022-10-17T02:09:24.268Z,70
2022-10-17T02:11:04.050Z,70
2022-10-17T02:12:43.829Z,70
2022-10-17T02:14:23.614Z,70
2022-10-17T02:16:03.330Z,70
2022-10-17T02:17:43.095Z,70
2022-10-17T02:19:22.874Z,70
2022-10-17T02:21:02.657Z,70
2022-10-17T02:22:42.401Z,70
2022-10-17T02:24:22.187Z,70
2022-10-17T02:26:01.950Z,70
2022-10-17T02:27:41.752Z,70
2022-10-17T02:29:21.478Z,70
2022-10-17T02:31:01.238Z,70
2022-10-17T02:34:20.848Z,70
2022-10-17T02:36:00.545Z,70
2022-10-17T02:37:40.326Z,70
2022-10-17T02:39:20.096Z,70
2022-10-17T02:40:59.905Z,70
2022-10-17T02:42:39.615Z,70
2022-10-17T02:44:19.387Z,70
2022-10-17T02:45:59.145Z,70
2022-10-17T02:47:38.913Z,70
2022-10-17T02:49:18.761Z,69
2022-10-17T02:50:58.442Z,70
2022-10-17T02:52:38.208Z,70
2022-10-17T02:54:17.982Z,69
2022-10-17T02:55:57.753Z,69
2022-10-17T02:57:37.551Z,69
2022-10-17T02:59:17.277Z,69
2022-10-17T03:00:57.060Z,69
2022-10-17T03:02:36.833Z,69
2022-10-17T03:04:16.623Z,69
2022-10-17T03:05:56.415Z,69
2022-10-17T03:07:36.122Z,69
2022-10-17T03:09:15.894Z,69
2022-10-17T03:10:55.672Z,69
2022-10-17T03:12:35.462Z,69
2022-10-17T03:14:15.206Z,69
2022-10-17T03:15:54.966Z,69
2022-10-17T03:17:34.733Z,69
2022-10-17T03:19:14.523Z,69
2022-10-17T03:20:54.270Z,69
2022-10-17T03:22:34.023Z,68
2022-10-17T03:24:13.798Z,69
2022-10-17T03:25:53.562Z,69
2022-10-17T03:27:33.339Z,69
2022-10-17T03:29:13.099Z,69
2022-10-17T03:30:52.882Z,68
2022-10-17T03:32:32.627Z,69
2022-10-17T03:34:12.430Z,69
2022-10-17T03:40:51.466Z,68
2022-10-17T03:42:31.247Z,68
2022-10-17T03:44:11.042Z,68
2022-10-17T03:45:50.788Z,68
2022-10-17T03:47:30.552Z,68
2022-10-17T03:50:50.103Z,68
2022-10-17T03:52:29.856Z,68
2022-10-17T03:54:09.617Z,68
2022-10-17T03:55:49.376Z,68
2022-10-17T03:57:29.194Z,68
2022-10-17T03:59:08.919Z,68
2022-10-17T04:00:48.679Z,68
2022-10-17T04:02:28.446Z,68
2022-10-17T04:04:08.234Z,68
2022-10-17T04:05:47.963Z,68
2022-10-17T04:07:27.797Z,68
2022-10-17T04:09:07.486Z,68
2022-10-17T04:10:47.252Z,68
2022-10-17T04:12:27.016Z,68
2022-10-17T04:14:06.773Z,68
2022-10-17T04:15:46.550Z,68
2022-10-17T04:17:26.308Z,68
2022-10-17T04:19:06.082Z,68
2022-10-17T04:20:45.838Z,68
2022-10-17T04:22:25.623Z,68
2022-10-17T04:24:05.374Z,67
2022-10-17T04:25:45.138Z,67
2022-10-17T04:27:24.893Z,67
2022-10-17T04:29:04.678Z,67
2022-10-17T04:34:03.944Z,67
2022-10-17T04:35:43.728Z,67
2022-10-17T04:37:23.543Z,67
2022-10-17T04:39:03.284Z,67
2022-10-17T04:40:43.009Z,67
2022-10-17T04:42:22.802Z,67
2022-10-17T04:44:02.547Z,67
2022-10-17T04:45:42.307Z,67
2022-10-17T04:47:22.073Z,67
2022-10-17T04:49:01.823Z,67
2022-10-17T04:50:41.587Z,67
2022-10-17T04:52:21.354Z,67
2022-10-17T04:54:01.140Z,66
2022-10-17T04:55:40.885Z,67
2022-10-17T04:57:20.652Z,67
2022-10-17T04:59:00.424Z,67
2022-10-17T05:00:40.297Z,67
2022-10-17T05:02:19.949Z,67
2022-10-17T05:03:59.704Z,67
2022-10-17T05:05:39.478Z,66
2022-10-17T05:07:19.237Z,67
2022-10-17T05:08:59.016Z,67
2022-10-17T05:10:38.785Z,67
2022-10-17T05:12:18.582Z,67
2022-10-17T05:13:58.285Z,67
2022-10-17T05:15:38.060Z,66
2022-10-17T05:17:17.826Z,66
2022-10-17T05:18:57.591Z,66
2022-10-17T05:20:37.353Z,66
2022-10-17T05:22:17.199Z,66
2022-10-17T05:23:56.875Z,66
2022-10-17T05:25:36.687Z,66
2022-10-17T05:27:16.416Z,66
2022-10-17T05:28:56.174Z,66
2022-10-17T05:30:35.953Z,66
2022-10-17T05:32:15.700Z,66
2022-10-17T05:33:55.464Z,66
2022-10-17T05:35:35.227Z,66
2022-10-17T05:37:15.004Z,66
2022-10-17T05:38:54.775Z,66
2022-10-17T05:40:34.549Z,66
2022-10-17T05:42:14.308Z,66
2022-10-17T05:43:54.051Z,66
2022-10-17T05:45:33.817Z,62
2022-10-17T05:47:13.604Z,56
2022-10-17T05:48:53.427Z,50
2022-10-17T05:50:33.518Z,44
2022-10-17T05:52:13.036Z,38
2022-10-17T05:53:52.763Z,32
2022-10-17T05:55:32.496Z,31
2022-10-17T05:57:12.257Z,32
2022-10-17T05:58:52.041Z,32
2022-10-17T06:00:31.725Z,32
2022-10-17T06:02:11.489Z,33
2022-10-17T06:03:51.343Z,33
2022-10-17T06:05:31.051Z,34
2022-10-17T06:07:10.894Z,34
2022-10-17T06:08:50.630Z,35
2022-10-17T06:10:30.416Z,35
2022-10-17T06:12:10.118Z,35
2022-10-17T06:13:49.896Z,36
2022-10-17T06:15:29.682Z,36
2022-10-17T06:17:09.514Z,38
2022-10-17T06:18:49.259Z,38
2022-10-17T06:20:28.963Z,38
2022-10-17T06:22:08.719Z,38
2022-10-17T06:23:48.545Z,39
2022-10-17T06:25:28.319Z,39
2022-10-17T06:27:08.034Z,40
2022-10-17T06:28:47.842Z,40
2022-10-17T06:30:27.584Z,41
2022-10-17T06:32:07.365Z,41
2022-10-17T06:33:47.212Z,42
2022-10-17T06:35:26.918Z,42
2022-10-17T06:37:06.667Z,42
2022-10-17T06:40:26.199Z,44
2022-10-17T06:42:05.998Z,45
2022-10-17T06:43:45.750Z,46
2022-10-17T06:45:25.507Z,47
2022-10-17T06:47:05.295Z,47
2022-10-17T06:48:45.050Z,48
2022-10-17T06:50:24.834Z,49
2022-10-17T06:52:04.612Z,49
2022-10-17T06:53:44.386Z,50
2022-10-17T06:55:24.192Z,50
2022-10-17T06:57:03.958Z,51
2022-10-17T06:58:43.671Z,50
2022-10-17T07:00:23.461Z,51
2022-10-17T07:02:03.313Z,52
2022-10-17T07:03:42.998Z,52
2022-10-17T07:05:22.816Z,52
2022-10-17T07:07:02.546Z,53
2022-10-17T07:08:42.312Z,54
2022-10-17T07:10:22.101Z,54
2022-10-17T07:12:01.877Z,55
2022-10-17T07:13:41.615Z,56
2022-10-17T07:15:21.440Z,57
2022-10-17T07:17:01.191Z,57
2022-10-17T07:18:40.962Z,61
2022-10-17T07:20:20.750Z,67
2022-10-17T07:22:00.560Z,71
2022-10-17T07:23:40.274Z,72
2022-10-17T07:25:20.099Z,73
2022-10-17T07:26:59.777Z,75
2022-10-17T07:30:19.318Z,67
2022-10-17T07:31:59.072Z,65
2022-10-17T07:33:38.843Z,64
2022-10-17T07:35:18.660Z,63
2022-10-17T07:36:58.467Z,62
2022-10-17T07:38:38.211Z,62
2022-10-17T07:40:17.935Z,62
2022-10-17T07:41:57.696Z,62
2022-10-17T07:43:37.490Z,61
2022-10-17T07:45:17.288Z,62
2022-10-17T07:46:57.008Z,61
2022-10-17T07:48:36.853Z,61
2022-10-17T07:50:16.554Z,61
2022-10-17T07:51:56.412Z,61
2022-10-17T07:53:36.085Z,62
2022-10-17T07:55:15.870Z,62
2022-10-17T07:56:55.692Z,62
2022-10-17T07:58:35.403Z,62
2022-10-17T08:00:15.187Z,62
2022-10-17T08:01:54.945Z,63
2022-10-17T08:03:34.711Z,63
2022-10-17T08:05:14.497Z,63
2022-10-17T08:06:54.259Z,63
2022-10-17T08:08:34.022Z,63
2022-10-17T08:10:13.792Z,63
2022-10-17T08:11:53.584Z,63
2022-10-17T08:13:33.374Z,64
2022-10-17T08:15:13.130Z,64
2022-10-17T08:16:52.935Z,64
2022-10-17T08:18:32.711Z,65
2022-10-17T08:20:12.425Z,71
2022-10-17T08:21:52.226Z,77
2022-10-17T08:23:32.041Z,83
2022-10-17T08:25:11.769Z,89
2022-10-17T08:26:51.510Z,91
2022-10-17T08:28:31.263Z,91
2022-10-17T08:30:11.054Z,91
2022-10-17T08:31:50.901Z,91
2022-10-17T08:33:30.584Z,91
2022-10-17T08:35:10.442Z,92
2022-10-17T08:36:50.151Z,91
2022-10-17T08:38:29.901Z,92
2022-10-17T08:40:09.708Z,92
2022-10-17T08:41:49.432Z,92
2022-10-17T08:43:29.214Z,91
2022-10-17T08:45:08.981Z,92
2022-10-17T08:46:48.831Z,92
2022-10-17T08:48:28.522Z,92
2022-10-17T08:50:08.292Z,92
2022-10-17T08:51:48.059Z,92
2022-10-17T08:53:27.827Z,92
2022-10-17T08:55:07.638Z,93
2022-10-17T08:56:47.366Z,92
2022-10-17T08:58:27.200Z,93
2022-10-17T09:00:06.911Z,92
2022-10-17T09:01:46.685Z,93
2022-10-17T09:03:26.465Z,92
2022-10-17T09:05:06.298Z,93
2022-10-17T09:06:45.987Z,93
2022-10-17T09:08:25.780Z,93
2022-10-17T09:10:05.600Z,94
2022-10-17T09:11:45.323Z,93
2022-10-17T09:13:25.078Z,94
2022-10-17T09:15:04.840Z,93
2022-10-17T09:16:44.615Z,94
2022-10-17T09:18:24.422Z,94
2022-10-17T09:20:04.160Z,94
2022-10-17T09:21:43.968Z,93
2022-10-17T09:23:23.710Z,94
2022-10-17T09:25:03.521Z,94
2022-10-17T09:26:43.271Z,94
2022-10-17T09:28:23.105Z,94
2022-10-17T09:30:02.777Z,94
2022-10-17T09:31:42.542Z,94
2022-10-17T09:33:22.314Z,95
2022-10-17T09:35:02.197Z,94
2022-10-17T09:36:41.935Z,95
2022-10-17T09:38:21.649Z,95
2022-10-17T09:40:01.562Z,95
2022-10-17T09:41:41.326Z,95
2022-10-17T09:43:21.088Z,95
2022-10-17T09:45:00.864Z,95
2022-10-17T09:46:40.480Z,95
2022-10-17T09:48:20.414Z,95
2022-10-17T09:50:00.176Z,95
2022-10-17T09:51:39.913Z,95
2022-10-17T09:53:19.715Z,96
2022-10-17T09:54:59.376Z,96
2022-10-17T09:56:39.116Z,96
2022-10-17T09:58:19.017Z,96
2022-10-17T09:59:58.782Z,96
2022-10-17T10:01:38.536Z,96
2022-10-17T10:03:18.338Z,96
2022-10-17T10:04:58.109Z,96
2022-10-17T10:06:37.866Z,96
2022-10-17T10:08:17.630Z,97
2022-10-17T10:09:57.257Z,96
2022-10-17T10:11:37.183Z,97
2022-10-17T10:13:16.973Z,97
2022-10-17T10:14:56.716Z,97
2022-10-17T10:16:36.494Z,97
2022-10-17T10:18:16.256Z,97
2022-10-17T10:19:56.065Z,98
2022-10-17T10:21:35.806Z,97
2022-10-17T10:23:15.595Z,97
2022-10-17T10:24:55.311Z,98
2022-10-17T10:26:35.035Z,97
2022-10-17T10:28:14.892Z,98
2022-10-17T10:29:54.664Z,98
2022-10-17T10:31:34.292Z,98
2022-10-17T10:33:14.210Z,98
2022-10-17T10:34:53.970Z,97
2022-10-17T10:36:33.598Z,98
2022-10-17T10:38:13.530Z,98
2022-10-17T10:39:53.321Z,98
2022-10-17T10:41:33.075Z,98
2022-10-17T10:43:12.798Z,99
2022-10-17T10:44:52.600Z,98
2022-10-17T10:46:32.221Z,99
2022-10-17T10:48:12.116Z,99
2022-10-17T10:49:51.771Z,99
2022-10-17T10:51:31.673Z,99
2022-10-17T10:53:11.451Z,99
2022-10-17T10:54:51.207Z,99
2022-10-17T10:56:30.935Z,99
2022-10-17T10:58:10.766Z,99
2022-10-17T10:59:50.388Z,100
2022-10-17T11:01:30.306Z,99
2022-10-17T11:03:10.073Z,100
2022-10-17T11:04:49.831Z,100
2022-10-17T11:06:29.478Z,100
2022-10-17T11:08:09.397Z,100
2022-10-17T11:09:49.149Z,100
2022-10-17T11:11:28.891Z,100
2022-10-17T11:13:08.684Z,100
2022-10-17T11:14:48.404Z,100
2022-10-17T11:16:28.237Z,100
2022-10-17T11:18:08.007Z,100
2022-10-17T11:19:47.772Z,100
2022-10-17T11:21:27.522Z,100
2022-10-17T11:23:07.318Z,100
2022-10-17T11:24:47.075Z,100
2022-10-17T11:26:26.708Z,100
2022-10-17T11:28:06.605Z,100
2022-10-17T11:29:46.395Z,100
2022-10-17T11:31:26.145Z,100
2022-10-17T11:33:05.915Z,100
2022-10-17T11:34:45.680Z,100
2022-10-17T11:36:25.473Z,100
2022-10-17T11:38:05.226Z,100
2022-10-17T11:39:45.026Z,100
2022-10-17T11:41:24.776Z,100
2022-10-17T11:43:04.557Z,100
2022-10-17T11:44:44.298Z,100
2022-10-17T11:46:24.102Z,100
2022-10-17T11:48:03.855Z,100
2022-10-17T11:49:43.637Z,100
2022-10-17T11:51:23.410Z,100
2022-10-17T11:53:03.147Z,100
2022-10-17T11:54:42.927Z,100
2022-10-17T11:56:22.679Z,100
2022-10-17T11:58:02.330Z,100
2022-10-17T12:01:22.001Z,100
2022-10-17T12:03:01.789Z,100
2022-10-17T12:04:41.544Z,100
2022-10-17T12:06:21.330Z,100
2022-10-17T12:08:01.078Z,100
2022-10-17T12:09:40.889Z,100
2022-10-17T12:11:20.489Z,100
2022-10-17T12:13:00.392Z,100
2022-10-17T12:14:40.204Z,100
2022-10-17T12:17:59.727Z,100
2022-10-17T12:19:39.487Z,100
2022-10-17T12:21:19.264Z,100
2022-10-17T12:22:59.035Z,100
2022-10-17T12:24:38.790Z,100
2022-10-17T12:26:18.564Z,100
2022-10-17T12:27:58.330Z,100
2022-10-17T12:29:38.090Z,100
2022-10-17T12:31:17.880Z,100
2022-10-17T12:32:57.650Z,100
2022-10-17T12:34:37.397Z,100
2022-10-17T12:36:17.222Z,100
2022-10-17T12:37:56.963Z,100
2022-10-17T12:39:36.706Z,100
2022-10-17T12:41:16.493Z,100
2022-10-17T12:42:56.282Z,100
2022-10-17T12:44:36.035Z,100
2022-10-17T12:46:15.827Z,100
2022-10-17T12:47:55.587Z,100
2022-10-17T12:49:35.330Z,100
2022-10-17T12:51:14.982Z,100
2022-10-17T12:52:54.797Z,100
2022-10-17T12:54:34.654Z,100
2022-10-17T12:56:14.435Z,100
2022-10-17T12:57:54.206Z,100
2022-10-17T12:59:33.911Z,100
2022-10-17T13:01:13.752Z,100
2022-10-17T13:02:53.526Z,100
2022-10-17T13:04:33.143Z,100
2022-10-17T13:06:13.032Z,100
2022-10-17T13:07:52.851Z,100
2022-10-17T13:09:32.584Z,100
2022-10-17T13:11:12.334Z,100
2022-10-17T13:12:52.138Z,100
2022-10-17T13:14:31.917Z,100
2022-10-17T13:16:11.545Z,100
2022-10-17T13:17:51.424Z,100
2022-10-17T13:19:31.231Z,100
2022-10-17T13:21:10.983Z,99
2022-10-17T13:22:50.751Z,93
2022-10-17T13:24:30.533Z,87
2022-10-17T13:26:10.310Z,81
2022-10-17T13:27:50.072Z,75
2022-10-17T13:29:29.840Z,69
2022-10-17T13:31:09.605Z,63
2022-10-17T13:32:49.382Z,57
2022-10-17T13:34:29.159Z,51
2022-10-17T13:36:08.929Z,45
2022-10-17T13:37:48.695Z,39
2022-10-17T13:39:28.494Z,33
2022-10-17T13:41:08.249Z,39
2022-10-17T13:42:48.020Z,45
2022-10-17T13:44:27.807Z,51
2022-10-17T13:46:07.518Z,54
2022-10-17T13:47:47.278Z,57
2022-10-17T13:49:27.066Z,63
2022-10-17T13:51:06.823Z,65
2022-10-17T13:52:46.607Z,63
2022-10-17T13:54:26.375Z,69
2022-10-17T13:56:06.181Z,75
2022-10-17T13:57:45.795Z,81
2022-10-17T13:59:25.572Z,87
2022-10-17T14:01:05.493Z,89
2022-10-17T14:02:45.254Z,91
2022-10-17T14:06:04.805Z,90
2022-10-17T14:07:44.432Z,91
2022-10-17T14:09:24.351Z,90
2022-10-17T14:11:03.967Z,91
2022-10-17T14:12:43.833Z,90
2022-10-17T14:14:23.660Z,91
2022-10-17T14:16:03.412Z,89
2022-10-17T14:17:43.044Z,90
2022-10-17T14:19:22.939Z,92
2022-10-17T14:21:02.627Z,92
2022-10-17T14:22:42.407Z,90
2022-10-17T14:24:22.146Z,90
2022-10-17T14:26:02.009Z,92
2022-10-17T14:27:41.715Z,92
2022-10-17T14:29:21.531Z,92
2022-10-17T14:31:01.228Z,92
2022-10-17T14:32:40.986Z,93
2022-10-17T14:34:20.752Z,93
2022-10-17T14:36:00.530Z,93
2022-10-17T14:37:40.302Z,93
2022-10-17T14:39:20.084Z,94
2022-10-17T14:40:59.833Z,94
2022-10-17T14:42:39.617Z,93
2022-10-17T14:44:19.389Z,94
2022-10-17T14:45:59.151Z,93
2022-10-17T14:47:38.931Z,94
2022-10-17T14:49:18.695Z,94
2022-10-17T14:50:58.464Z,93
2022-10-17T14:52:38.226Z,94
2022-10-17T14:54:18.003Z,93
2022-10-17T14:55:57.773Z,92
2022-10-17T14:57:37.559Z,88
2022-10-17T14:59:17.413Z,83
2022-10-17T15:00:57.181Z,78
2022-10-17T15:02:36.859Z,80
2022-10-17T15:04:16.636Z,86
2022-10-17T15:05:56.382Z,92
2022-10-17T15:07:36.159Z,95
2022-10-17T15:09:15.950Z,94
2022-10-17T15:10:55.699Z,94
2022-10-17T15:12:35.469Z,95
2022-10-17T15:14:15.247Z,95
2022-10-17T15:15:55.036Z,95
2022-10-17T15:17:34.785Z,94
2022-10-17T15:19:14.564Z,95
2022-10-17T15:20:54.337Z,95
2022-10-17T15:22:34.121Z,94
2022-10-17T15:24:13.858Z,96
2022-10-17T15:25:53.648Z,96
2022-10-17T15:27:33.402Z,95
2022-10-17T15:29:13.178Z,96
2022-10-17T15:30:52.948Z,95
2022-10-17T15:32:32.722Z,93
2022-10-17T15:34:12.485Z,88
2022-10-17T15:35:52.261Z,82
2022-10-17T15:37:32.037Z,78
2022-10-17T15:39:11.807Z,78
2022-10-17T15:40:51.566Z,75
2022-10-17T15:42:31.360Z,73
2022-10-17T15:44:11.119Z,72
2022-10-17T15:45:50.881Z,71
2022-10-17T15:47:30.682Z,69
2022-10-17T15:49:10.419Z,68
2022-10-17T15:50:50.204Z,68
2022-10-17T15:52:29.959Z,70
2022-10-17T15:54:09.764Z,74
2022-10-17T15:55:49.507Z,80
2022-10-17T15:57:29.258Z,86
2022-10-17T15:59:09.036Z,92
2022-10-17T16:00:48.800Z,98
2022-10-17T16:02:28.569Z,100
2022-10-17T16:04:08.355Z,100
2022-10-17T16:05:48.103Z,100
2022-10-17T16:07:27.875Z,100
2022-10-17T16:09:07.631Z,99
2022-10-17T16:10:47.405Z,98
2022-10-17T16:12:27.170Z,97
2022-10-17T16:14:06.939Z,96
2022-10-17T16:15:46.726Z,95
2022-10-17T16:17:26.482Z,94
2022-10-17T16:19:06.235Z,93
2022-10-17T16:20:46.008Z,93
2022-10-17T16:22:25.767Z,92
2022-10-17T16:24:05.555Z,91
2022-10-17T16:25:45.307Z,91
2022-10-17T16:27:25.089Z,90
2022-10-17T16:29:04.865Z,90
2022-10-17T16:30:44.615Z,90
2022-10-17T16:32:24.475Z,89
2022-10-17T16:34:04.158Z,89
2022-10-17T16:35:43.919Z,89
2022-10-17T16:37:23.697Z,88
2022-10-17T16:39:03.455Z,88
2022-10-17T16:40:43.220Z,88
2022-10-17T16:42:22.991Z,87
2022-10-17T16:44:02.764Z,87
2022-10-17T16:45:42.513Z,87
2022-10-17T16:47:22.304Z,86
2022-10-17T16:49:02.053Z,86
2022-10-17T16:50:41.835Z,86
2022-10-17T16:52:21.600Z,85
2022-10-17T16:54:01.366Z,85
2022-10-17T16:55:41.126Z,85
2022-10-17T16:57:20.902Z,85
2022-10-17T16:59:00.655Z,85
2022-10-17T17:00:40.435Z,84
2022-10-17T17:02:20.232Z,84
2022-10-17T17:03:59.968Z,84
2022-10-17T17:05:39.737Z,84
2022-10-17T17:07:19.499Z,83
2022-10-17T17:08:59.272Z,83
2022-10-17T17:10:39.043Z,83
2022-10-17T17:12:18.808Z,83
2022-10-17T17:13:58.565Z,83
2022-10-17T17:15:38.440Z,83
2022-10-17T17:17:18.102Z,82
2022-10-17T17:18:57.910Z,82
2022-10-17T17:20:37.640Z,82
2022-10-17T17:22:17.403Z,82
2022-10-17T17:23:57.172Z,82
2022-10-17T17:25:36.952Z,82
2022-10-17T17:27:16.716Z,82
2022-10-17T17:28:56.486Z,81
2022-10-17T17:30:36.248Z,81
2022-10-17T17:32:16.011Z,81
2022-10-17T17:33:55.775Z,81
2022-10-17T17:37:15.305Z,81
2022-10-17T17:38:55.077Z,81
2022-10-17T17:40:34.857Z,81
2022-10-17T17:42:14.631Z,81
2022-10-17T17:43:54.402Z,80
2022-10-17T17:45:34.164Z,80
2022-10-17T17:47:13.926Z,80
2022-10-17T17:48:53.695Z,80
2022-10-17T17:50:33.460Z,80
2022-10-17T17:52:13.214Z,80
2022-10-17T17:53:53.007Z,80
2022-10-17T17:55:32.770Z,80
2022-10-17T17:57:12.531Z,80
2022-10-17T17:58:52.303Z,80
2022-10-17T18:00:32.078Z,80
2022-10-17T18:02:11.834Z,80
2022-10-17T18:03:51.600Z,80
2022-10-17T18:05:31.367Z,80
2022-10-17T18:07:11.141Z,80
2022-10-17T18:08:50.898Z,79
2022-10-17T18:10:30.679Z,79
2022-10-17T18:12:10.451Z,79
2022-10-17T18:13:50.208Z,79
2022-10-17T18:15:29.978Z,79
2022-10-17T18:17:09.752Z,79
2022-10-17T18:18:49.498Z,79
2022-10-17T18:20:29.270Z,79
2022-10-17T18:22:09.034Z,79
2022-10-17T18:23:48.810Z,79
2022-10-17T18:25:28.587Z,79
2022-10-17T18:27:08.340Z,79
2022-10-17T18:28:48.115Z,79
2022-10-17T18:30:27.874Z,79
2022-10-17T18:32:07.658Z,78
2022-10-17T18:33:47.411Z,79
2022-10-17T18:35:27.173Z,78
2022-10-17T18:37:06.967Z,79
2022-10-17T18:38:46.728Z,78
2022-10-17T18:40:26.491Z,78
2022-10-17T18:42:06.260Z,78
2022-10-17T18:43:46.026Z,78
2022-10-17T18:45:25.792Z,78
2022-10-17T18:47:05.560Z,78
2022-10-17T18:48:45.330Z,78
2022-10-17T18:50:25.105Z,78
2022-10-17T18:52:04.851Z,78
2022-10-17T18:53:44.622Z,78
2022-10-17T18:55:24.399Z,78
2022-10-17T18:57:04.170Z,78
2022-10-17T18:58:43.937Z,78
2022-10-17T19:00:23.746Z,78
2022-10-17T19:02:03.467Z,78
2022-10-17T19:03:43.228Z,78
2022-10-17T19:05:23.064Z,78
2022-10-17T19:07:02.770Z,78
2022-10-17T19:08:42.533Z,78
2022-10-17T19:10:22.306Z,77
2022-10-17T19:12:02.076Z,78
2022-10-17T19:13:41.825Z,77
2022-10-17T19:15:21.595Z,77
2022-10-17T19:17:01.373Z,77
2022-10-17T19:18:41.147Z,77
2022-10-17T19:20:20.913Z,77
2022-10-17T19:22:00.671Z,77
2022-10-17T19:23:40.479Z,77
2022-10-17T19:25:20.219Z,77
2022-10-17T19:26:59.965Z,77
2022-10-17T19:28:39.747Z,77
2022-10-17T19:30:19.513Z,77
2022-10-17T19:31:59.278Z,77
2022-10-17T19:33:39.082Z,77
2022-10-17T19:35:18.863Z,77
2022-10-17T19:36:58.579Z,77
2022-10-17T19:38:38.357Z,77
2022-10-17T19:40:18.120Z,77
2022-10-17T19:41:57.894Z,77
2022-10-17T19:43:37.654Z,76
2022-10-17T19:45:17.415Z,77
2022-10-17T19:46:57.194Z,77
2022-10-17T19:48:36.960Z,77
2022-10-17T19:50:16.737Z,77
2022-10-17T19:51:56.503Z,77
2022-10-17T19:53:36.270Z,76
2022-10-17T19:55:16.039Z,77
2022-10-17T19:56:55.805Z,76
2022-10-17T19:58:35.549Z,77
2022-10-17T20:00:15.322Z,76
2022-10-17T20:01:55.130Z,76
2022-10-17T20:03:34.874Z,76
2022-10-17T20:05:14.650Z,76
2022-10-17T20:06:54.423Z,76
2022-10-17T20:08:34.161Z,76
2022-10-17T20:10:13.926Z,76
2022-10-17T20:11:53.707Z,76
2022-10-17T20:13:33.479Z,76
2022-10-17T20:15:13.243Z,76
2022-10-17T20:16:53.015Z,76
2022-10-17T20:18:32.771Z,76
2022-10-17T20:20:12.584Z,76
2022-10-17T20:21:52.319Z,76
2022-10-17T20:23:32.074Z,76
2022-10-17T20:25:11.841Z,76
2022-10-17T20:26:51.613Z,76
2022-10-17T20:28:31.389Z,76
2022-10-17T20:30:11.148Z,76
2022-10-17T20:31:50.947Z,76
2022-10-17T20:33:30.677Z,76
2022-10-17T20:35:10.444Z,76
2022-10-17T20:36:50.256Z,76
2022-10-17T20:38:29.984Z,76
2022-10-17T20:40:09.770Z,76
2022-10-17T20:41:49.509Z,76
2022-10-17T20:43:29.277Z,76
2022-10-17T20:45:09.055Z,76
2022-10-17T20:46:48.816Z,76
2022-10-17T20:48:28.580Z,76
2022-10-17T20:50:08.345Z,76
2022-10-17T20:51:48.115Z,76
2022-10-17T20:53:27.894Z,76
2022-10-17T20:55:07.649Z,76
2022-10-17T20:56:47.460Z,76
2022-10-17T20:58:27.180Z,75
2022-10-17T21:00:06.974Z,76
2022-10-17T21:01:46.732Z,76
2022-10-17T21:03:26.479Z,75
2022-10-17T21:05:06.262Z,76
2022-10-17T21:06:46.048Z,75
2022-10-17T21:08:25.793Z,75
2022-10-17T21:10:05.558Z,75
2022-10-17T21:11:45.404Z,75
2022-10-17T21:13:25.096Z,75
2022-10-17T21:15:04.864Z,75
2022-10-17T21:16:44.632Z,75
2022-10-17T21:18:24.390Z,75
2022-10-17T21:20:04.165Z,75
2022-10-17T21:21:43.939Z,75
2022-10-17T21:23:23.707Z,75
2022-10-17T21:25:03.476Z,75
2022-10-17T21:26:43.230Z,75
2022-10-17T21:28:23.008Z,75
2022-10-17T21:30:02.776Z,75
2022-10-17T21:31:42.541Z,75
2022-10-17T21:33:22.315Z,75
2022-10-17T21:35:02.088Z,75
2022-10-17T21:36:41.834Z,75
2022-10-17T21:38:21.606Z,75
2022-10-17T21:40:01.391Z,75
2022-10-17T21:41:41.145Z,75
2022-10-17T21:43:20.909Z,75
2022-10-17T21:45:00.679Z,75
2022-10-17T21:46:40.451Z,75
2022-10-17T21:48:20.229Z,75
2022-10-17T21:50:00.011Z,75
2022-10-17T21:51:39.762Z,75
2022-10-17T21:53:19.511Z,75
2022-10-17T21:54:59.291Z,75
2022-10-17T21:56:39.051Z,75
2022-10-17T21:58:18.823Z,75
2022-10-17T21:59:58.578Z,75
2022-10-17T22:01:38.353Z,75
2022-10-17T22:03:18.118Z,75
2022-10-17T22:04:57.886Z,75
2022-10-17T22:06:37.655Z,75
2022-10-17T22:08:17.424Z,75
2022-10-17T22:09:57.192Z,75
2022-10-17T22:11:36.959Z,75
2022-10-17T22:13:16.725Z,75
2022-10-17T22:14:56.601Z,75
2022-10-17T22:16:36.282Z,75
2022-10-17T22:18:16.027Z,75
2022-10-17T22:19:55.809Z,75
2022-10-17T22:21:35.560Z,75
2022-10-17T22:23:15.327Z,75
2022-10-17T22:24:55.102Z,75
2022-10-17T22:26:34.863Z,75
2022-10-17T22:28:14.630Z,75
2022-10-17T22:29:54.402Z,75
2022-10-17T22:31:34.173Z,75
2022-10-17T22:33:13.947Z,75
2022-10-17T22:34:53.706Z,75
2022-10-17T22:36:33.468Z,74
2022-10-17T22:38:13.234Z,75
2022-10-17T22:39:53.020Z,74
2022-10-17T22:41:32.778Z,74
2022-10-17T22:43:12.553Z,74
2022-10-17T22:44:52.303Z,74
2022-10-17T22:46:32.076Z,74
2022-10-17T22:48:11.850Z,74
2022-10-17T22:49:51.600Z,74
2022-10-17T22:51:31.381Z,74
2022-10-17T22:53:11.151Z,74
2022-10-17T22:54:50.906Z,74
2022-10-17T22:56:30.684Z,74
2022-10-17T22:58:10.452Z,74
2022-10-17T22:59:50.221Z,74
2022-10-17T23:01:29.976Z,74
2022-10-17T23:03:09.754Z,74
2022-10-17T23:04:49.513Z,74
2022-10-17T23:06:29.293Z,74
2022-10-17T23:08:09.049Z,74
2022-10-17T23:09:48.837Z,74
2022-10-17T23:11:28.576Z,74
2022-10-17T23:13:08.359Z,74
2022-10-17T23:14:48.117Z,74
2022-10-17T23:16:27.887Z,74
2022-10-17T23:18:07.662Z,74
2022-10-17T23:19:47.442Z,74
2022-10-17T23:21:27.197Z,74
2022-10-17T23:23:06.972Z,74
2022-10-17T23:24:46.727Z,74
2022-10-17T23:26:26.498Z,74
2022-10-17T23:28:06.276Z,74
2022-10-17T23:29:46.021Z,73
2022-10-17T23:31:25.795Z,74
2022-10-17T23:33:05.575Z,74
2022-10-17T23:34:45.339Z,74
2022-10-17T23:36:25.151Z,74
2022-10-17T23:38:04.889Z,74
2022-10-17T23:39:44.650Z,73
2022-10-17T23:41:24.397Z,74
2022-10-17T23:43:04.172Z,74
2022-10-17T23:44:43.937Z,74
2022-10-17T23:46:23.708Z,73
2022-10-17T23:48:03.466Z,73
2022-10-17T23:49:43.237Z,73
2022-10-17T23:51:23.023Z,73
2022-10-17T23:53:02.768Z,73
2022-10-17T23:54:42.542Z,73
2022-10-17T23:56:22.326Z,73
2022-10-17T23:58:02.111Z,73
2022-10-17T23:59:41.851Z,73
